createdAt,value
2018-08-09T00:00:01.563Z,14.97
2018-08-09T00:02:29.959Z,28.23
2018-08-09T00:04:58.338Z,14.00
2018-08-09T00:07:26.642Z,14.80
2018-08-09T00:09:54.934Z,17.50
2018-08-09T00:12:23.244Z,15.13
2018-08-09T00:14:51.588Z,17.90
2018-08-09T00:17:19.914Z,14.50
2018-08-09T00:19:48.230Z,14.50
2018-08-09T00:22:16.538Z,18.17
2018-08-09T00:24:44.836Z,16.87
2018-08-09T00:27:13.155Z,15.03
2018-08-09T00:29:41.470Z,18.20
2018-08-09T00:32:09.813Z,14.10
2018-08-09T00:34:38.144Z,22.70
2018-08-09T00:37:06.482Z,20.13
2018-08-09T00:39:34.757Z,14.77
2018-08-09T00:42:03.088Z,17.03
2018-08-09T00:44:31.394Z,16.93
2018-08-09T00:46:59.700Z,16.13
2018-08-09T00:49:28.025Z,16.17
2018-08-09T00:51:56.293Z,23.43
2018-08-09T00:54:24.625Z,14.93
2018-08-09T00:56:52.947Z,13.20
2018-08-09T00:59:21.369Z,14.63
2018-08-09T01:01:49.739Z,13.73
2018-08-09T01:04:18.063Z,15.07
2018-08-09T01:06:46.358Z,16.50
2018-08-09T01:09:15.266Z,16.90
2018-08-09T01:11:43.854Z,15.03
2018-08-09T01:14:12.150Z,15.27
2018-08-09T01:16:40.447Z,16.47
2018-08-09T01:19:08.760Z,15.90
2018-08-09T01:21:37.088Z,14.00
2018-08-09T01:24:05.769Z,14.80
2018-08-09T01:26:34.091Z,14.87
2018-08-09T01:29:02.414Z,16.30
2018-08-09T01:31:35.369Z,20.10
2018-08-09T01:34:08.783Z,18.37
2018-08-09T01:36:37.700Z,15.07
2018-08-09T01:39:09.536Z,13.53
2018-08-09T01:41:37.932Z,16.80
2018-08-09T01:44:07.016Z,15.73
2018-08-09T01:46:35.309Z,16.57
2018-08-09T01:49:03.593Z,12.97
2018-08-09T01:51:32.452Z,13.70
2018-08-09T01:54:00.748Z,14.20
2018-08-09T01:56:29.037Z,16.63
2018-08-09T01:58:57.329Z,15.50
2018-08-09T02:01:25.655Z,12.80
2018-08-09T02:03:53.980Z,14.67
2018-08-09T02:06:22.270Z,13.70
2018-08-09T02:08:50.585Z,15.07
2018-08-09T02:11:18.918Z,16.10
2018-08-09T02:13:47.212Z,15.40
2018-08-09T02:16:15.505Z,18.37
2018-08-09T02:18:43.880Z,14.90
2018-08-09T02:21:12.197Z,14.47
2018-08-09T02:23:40.507Z,16.30
2018-08-09T02:26:08.784Z,13.70
2018-08-09T02:28:37.119Z,13.33
2018-08-09T02:31:05.459Z,15.80
2018-08-09T02:33:33.748Z,13.90
2018-08-09T02:36:02.061Z,15.97
2018-08-09T02:38:30.375Z,13.53
2018-08-09T02:40:58.685Z,17.37
2018-08-09T02:43:26.989Z,14.80
2018-08-09T02:45:55.279Z,16.80
2018-08-09T02:48:23.576Z,17.67
2018-08-09T02:50:51.892Z,14.70
2018-08-09T02:53:20.198Z,17.83
2018-08-09T02:55:48.549Z,14.77
2018-08-09T02:58:16.920Z,13.90
2018-08-09T03:00:45.244Z,16.80
2018-08-09T03:03:13.554Z,16.07
2018-08-09T03:05:41.883Z,13.23
2018-08-09T03:08:11.051Z,14.30
2018-08-09T03:13:10.619Z,17.57
2018-08-09T03:15:38.912Z,16.67
2018-08-09T03:18:07.209Z,15.23
2018-08-09T03:20:35.531Z,14.23
2018-08-09T03:23:03.802Z,14.73
2018-08-09T03:25:32.124Z,17.83
2018-08-09T03:28:00.444Z,14.03
2018-08-09T03:30:28.779Z,15.20
2018-08-09T03:32:57.116Z,14.73
2018-08-09T03:35:25.474Z,13.27
2018-08-09T03:37:53.840Z,14.70
2018-08-09T03:40:22.127Z,14.70
2018-08-09T03:42:50.447Z,17.90
2018-08-09T03:45:18.770Z,16.30
2018-08-09T03:47:47.082Z,16.90
2018-08-09T03:50:15.417Z,14.53
2018-08-09T03:52:43.736Z,15.80
2018-08-09T03:55:12.084Z,16.10
2018-08-09T03:57:40.406Z,18.83
2018-08-09T04:00:09.378Z,18.90
2018-08-09T04:02:37.889Z,15.40
2018-08-09T04:05:06.871Z,14.60
2018-08-09T04:07:35.256Z,13.87
2018-08-09T04:10:03.657Z,15.77
2018-08-09T04:12:31.975Z,17.10
2018-08-09T04:15:00.313Z,16.90
2018-08-09T04:17:28.625Z,17.90
2018-08-09T04:19:57.024Z,14.70
2018-08-09T04:22:25.344Z,16.63
2018-08-09T04:24:53.691Z,16.10
2018-08-09T04:27:21.979Z,16.97
2018-08-09T04:29:50.282Z,18.90
2018-08-09T04:32:18.600Z,16.80
2018-08-09T04:34:46.887Z,19.20
2018-08-09T04:37:15.252Z,15.27
2018-08-09T04:39:43.522Z,16.00
2018-08-09T04:42:11.832Z,18.10
2018-08-09T04:44:40.153Z,14.20
2018-08-09T04:47:08.482Z,15.77
2018-08-09T04:49:36.894Z,14.33
2018-08-09T04:52:05.192Z,14.47
2018-08-09T04:54:33.497Z,15.77
2018-08-09T04:57:01.800Z,21.73
2018-08-09T04:59:30.112Z,20.87
2018-08-09T05:01:58.403Z,15.47
2018-08-09T05:04:26.719Z,16.90
2018-08-09T05:06:55.153Z,13.30
2018-08-09T05:09:23.478Z,12.33
2018-08-09T05:11:51.791Z,13.30
2018-08-09T05:14:20.120Z,15.60
2018-08-09T05:16:48.459Z,15.80
2018-08-09T05:19:16.761Z,18.07
2018-08-09T05:21:45.100Z,14.77
2018-08-09T05:24:13.487Z,19.37
2018-08-09T05:26:41.833Z,19.43
2018-08-09T05:29:10.181Z,20.63
2018-08-09T05:31:38.494Z,17.20
2018-08-09T05:34:06.895Z,21.63
2018-08-09T05:36:35.200Z,25.27
2018-08-09T05:39:03.683Z,19.87
2018-08-09T05:41:32.020Z,20.00
2018-08-09T05:44:00.333Z,19.73
2018-08-09T05:46:28.702Z,21.17
2018-08-09T05:48:57.009Z,28.60
2018-08-09T05:51:25.386Z,23.13
2018-08-09T05:53:53.759Z,26.57
2018-08-09T05:56:22.075Z,22.07
2018-08-09T05:58:50.485Z,21.63
2018-08-09T06:01:18.810Z,25.07
2018-08-09T06:03:47.150Z,20.73
2018-08-09T06:06:15.450Z,22.20
2018-08-09T06:08:43.791Z,22.73
2018-08-09T06:11:12.085Z,19.97
2018-08-09T06:13:40.410Z,22.10
2018-08-09T06:16:08.716Z,18.47
2018-08-09T06:18:37.045Z,21.10
2018-08-09T06:21:05.402Z,26.00
2018-08-09T06:23:33.823Z,23.40
2018-08-09T06:26:02.163Z,18.83
2018-08-09T06:28:30.615Z,20.90
2018-08-09T06:30:58.960Z,18.57
2018-08-09T06:33:27.336Z,18.40
2018-08-09T06:35:55.648Z,17.33
2018-08-09T06:38:23.990Z,17.37
2018-08-09T06:40:52.303Z,18.57
2018-08-09T06:43:20.663Z,18.10
2018-08-09T06:45:49.082Z,15.80
2018-08-09T06:48:17.413Z,16.30
2018-08-09T06:50:45.726Z,15.10
2018-08-09T06:53:14.112Z,15.40
2018-08-09T06:55:42.476Z,16.30
2018-08-09T06:58:10.814Z,14.67
2018-08-09T07:00:39.224Z,13.70
2018-08-09T07:03:07.539Z,16.30
2018-08-09T07:05:35.857Z,15.03
2018-08-09T07:08:04.256Z,16.03
2018-08-09T07:10:32.604Z,12.67
2018-08-09T07:13:00.933Z,13.00
2018-08-09T07:15:29.319Z,15.40
2018-08-09T07:17:57.638Z,11.93
2018-08-09T07:20:26.093Z,15.30
2018-08-09T07:22:54.385Z,12.70
2018-08-09T07:25:22.698Z,11.90
2018-08-09T07:27:51.036Z,11.20
2018-08-09T07:30:19.352Z,11.17
2018-08-09T07:32:47.694Z,14.10
2018-08-09T07:35:16.077Z,13.10
2018-08-09T07:37:44.392Z,10.83
2018-08-09T07:40:13.173Z,13.93
2018-08-09T07:42:42.694Z,11.60
2018-08-09T07:45:12.613Z,9.60
2018-08-09T07:47:41.035Z,9.10
2018-08-09T07:50:10.032Z,10.47
2018-08-09T07:52:38.742Z,9.37
2018-08-09T07:55:08.629Z,9.47
2018-08-09T07:57:37.056Z,11.87
2018-08-09T08:00:07.360Z,10.63
2018-08-09T08:02:35.698Z,10.37
2018-08-09T08:05:04.380Z,10.10
2018-08-09T08:07:32.743Z,9.23
2018-08-09T08:10:01.072Z,12.17
2018-08-09T08:12:29.441Z,10.00
2018-08-09T08:14:57.846Z,11.47
2018-08-09T08:17:26.156Z,8.80
2018-08-09T08:19:54.497Z,13.70
2018-08-09T08:22:22.836Z,12.77
2018-08-09T08:24:51.200Z,13.70
2018-08-09T08:27:19.532Z,14.17
2018-08-09T08:29:47.867Z,10.17
2018-08-09T08:32:16.192Z,11.33
2018-08-09T08:34:44.525Z,12.80
2018-08-09T08:37:12.853Z,12.10
2018-08-09T08:39:41.195Z,8.97
2018-08-09T08:42:09.539Z,11.93
2018-08-09T08:44:37.897Z,10.20
2018-08-09T08:47:06.223Z,10.87
2018-08-09T08:49:34.590Z,14.20
2018-08-09T08:52:02.913Z,10.73
2018-08-09T08:54:31.215Z,12.60
2018-08-09T08:56:59.559Z,10.50
2018-08-09T08:59:27.926Z,7.90
2018-08-09T09:01:56.305Z,12.63
2018-08-09T09:04:24.783Z,13.40
2018-08-09T09:12:34.641Z,10.90
2018-08-09T09:15:03.031Z,15.67
2018-08-09T09:17:31.330Z,11.90
2018-08-09T09:19:59.682Z,9.47
2018-08-09T09:22:28.033Z,9.00
2018-08-09T09:24:56.409Z,14.23
2018-08-09T09:27:24.806Z,15.43
2018-08-09T09:29:53.194Z,9.33
2018-08-09T09:32:21.594Z,10.40
2018-08-09T09:34:49.983Z,13.20
2018-08-09T09:37:18.335Z,11.20
2018-08-09T09:39:46.667Z,9.03
2018-08-09T09:42:15.196Z,9.63
2018-08-09T09:44:43.572Z,10.53
2018-08-09T09:47:11.924Z,10.23
2018-08-09T09:49:40.347Z,9.20
2018-08-09T09:52:08.680Z,13.43
2018-08-09T09:54:37.514Z,10.87
2018-08-09T09:57:05.837Z,8.77
2018-08-09T09:59:35.224Z,9.37
2018-08-09T10:02:03.633Z,11.37
2018-08-09T10:04:32.087Z,8.73
2018-08-09T10:07:00.508Z,12.10
2018-08-09T10:09:28.827Z,10.07
2018-08-09T10:11:57.309Z,12.37
2018-08-09T10:14:25.707Z,10.43
2018-08-09T10:16:54.962Z,9.90
2018-08-09T10:19:23.338Z,10.67
2018-08-09T10:21:51.692Z,10.50
2018-08-09T10:24:20.145Z,12.53
2018-08-09T10:26:48.522Z,11.07
2018-08-09T10:29:16.925Z,11.00
2018-08-09T10:31:45.340Z,19.47
2018-08-09T10:34:13.755Z,10.90
2018-08-09T10:36:42.269Z,12.03
2018-08-09T10:39:11.699Z,9.73
2018-08-09T10:41:40.157Z,10.70
2018-08-09T10:44:08.523Z,15.00
2018-08-09T10:46:36.886Z,12.40
2018-08-09T10:49:05.263Z,9.53
2018-08-09T10:51:33.591Z,8.80
2018-08-09T10:54:01.985Z,10.17
2018-08-09T10:56:30.394Z,10.47
2018-08-09T10:58:58.805Z,13.60
2018-08-09T11:01:27.178Z,12.47
2018-08-09T11:03:56.268Z,9.67
2018-08-09T11:06:24.613Z,11.37
2018-08-09T11:08:53.009Z,9.70
2018-08-09T11:11:22.742Z,12.20
2018-08-09T11:13:51.093Z,8.83
2018-08-09T11:16:19.863Z,12.03
2018-08-09T11:18:48.298Z,9.53
2018-08-09T11:21:16.735Z,10.20
2018-08-09T11:23:46.056Z,15.30
2018-08-09T11:26:14.340Z,9.67
2018-08-09T11:28:42.764Z,9.93
2018-08-09T11:31:11.214Z,8.90
2018-08-09T11:33:40.350Z,9.63
2018-08-09T11:36:08.733Z,14.40
2018-08-09T11:38:37.125Z,10.27
2018-08-09T11:41:06.673Z,9.70
2018-08-09T11:43:35.098Z,12.93
2018-08-09T11:46:03.480Z,12.53
2018-08-09T11:48:31.819Z,15.33
2018-08-09T11:51:00.833Z,9.50
2018-08-09T11:53:29.177Z,9.20
2018-08-09T11:55:57.509Z,8.87
2018-08-09T11:58:26.023Z,9.97
2018-08-09T12:00:54.400Z,12.13
2018-08-09T12:03:22.812Z,9.20
2018-08-09T12:05:51.130Z,10.03
2018-08-09T12:08:19.536Z,10.37
2018-08-09T12:10:47.929Z,11.93
2018-08-09T12:13:16.340Z,9.60
2018-08-09T12:15:44.749Z,9.77
2018-08-09T12:18:13.113Z,10.57
2018-08-09T12:20:41.584Z,9.63
2018-08-09T12:23:09.916Z,11.03
2018-08-09T12:25:38.288Z,9.60
2018-08-09T12:28:06.709Z,9.80
2018-08-09T12:30:35.028Z,5.77
2018-08-09T12:33:03.697Z,9.07
2018-08-09T12:35:31.999Z,8.73
2018-08-09T12:38:00.395Z,13.53
2018-08-09T12:40:29.344Z,7.43
2018-08-09T12:42:57.743Z,13.63
2018-08-09T12:45:26.175Z,8.27
2018-08-09T12:47:54.464Z,8.43
2018-08-09T12:50:22.857Z,7.60
2018-08-09T12:52:51.256Z,11.83
2018-08-09T12:55:19.619Z,6.80
2018-08-09T12:57:48.028Z,10.50
2018-08-09T13:00:16.488Z,6.57
2018-08-09T13:02:44.800Z,12.67
2018-08-09T13:05:13.350Z,9.63
2018-08-09T13:07:42.153Z,12.30
2018-08-09T13:10:11.861Z,11.13
2018-08-09T13:12:40.233Z,7.83
2018-08-09T13:15:11.068Z,10.90
2018-08-09T13:17:39.598Z,7.33
2018-08-09T13:20:11.015Z,8.97
2018-08-09T13:22:39.333Z,8.43
2018-08-09T13:25:07.675Z,8.53
2018-08-09T13:27:36.768Z,7.90
2018-08-09T13:30:07.468Z,9.03
2018-08-09T13:32:35.771Z,6.10
2018-08-09T13:35:04.688Z,9.00
2018-08-09T13:37:33.082Z,9.63
2018-08-09T13:40:01.496Z,8.90
2018-08-09T13:42:29.870Z,10.03
2018-08-09T13:44:58.269Z,8.17
2018-08-09T13:47:26.630Z,9.07
2018-08-09T13:49:54.983Z,9.60
2018-08-09T13:52:23.352Z,16.97
2018-08-09T13:54:51.820Z,7.23
2018-08-09T13:57:20.200Z,8.60
2018-08-09T13:59:48.536Z,7.20
2018-08-09T14:02:16.857Z,7.47
2018-08-09T14:04:45.205Z,6.90
2018-08-09T14:07:13.556Z,6.10
2018-08-09T14:09:41.898Z,6.70
2018-08-09T14:12:10.319Z,5.97
2018-08-09T14:14:38.763Z,7.43
2018-08-09T14:17:07.155Z,4.57
2018-08-09T14:19:35.500Z,5.00
2018-08-09T14:22:03.928Z,8.73
2018-08-09T14:24:32.385Z,4.83
2018-08-09T14:27:00.729Z,8.63
2018-08-09T14:29:29.081Z,6.63
2018-08-09T14:31:57.504Z,4.77
2018-08-09T14:34:25.875Z,4.23
2018-08-09T14:36:54.283Z,4.30
2018-08-09T14:39:22.657Z,3.87
2018-08-09T14:41:51.011Z,2.93
2018-08-09T14:44:19.353Z,3.37
2018-08-09T14:46:47.740Z,3.07
2018-08-09T14:49:16.315Z,2.97
2018-08-09T14:51:44.813Z,4.70
2018-08-09T14:54:13.223Z,5.53
2018-08-09T14:56:41.611Z,3.87
2018-08-09T14:59:09.935Z,3.63
2018-08-09T15:01:38.338Z,4.47
2018-08-09T15:04:06.895Z,3.17
2018-08-09T15:06:35.287Z,5.00
2018-08-09T15:09:05.776Z,3.07
2018-08-09T15:11:34.114Z,3.00
2018-08-09T15:14:02.608Z,5.77
2018-08-09T15:16:30.970Z,2.63
2018-08-09T15:18:59.398Z,3.37
2018-08-09T15:21:27.765Z,4.30
2018-08-09T15:23:56.144Z,4.43
2018-08-09T15:26:24.498Z,4.80
2018-08-09T15:28:52.849Z,3.30
2018-08-09T15:31:21.268Z,3.47
2018-08-09T15:33:49.689Z,2.90
2018-08-09T15:36:18.040Z,3.67
2018-08-09T15:38:47.876Z,3.10
2018-08-09T15:41:16.284Z,3.50
2018-08-09T15:43:44.696Z,5.17
2018-08-09T15:46:13.051Z,4.00
2018-08-09T15:48:41.377Z,3.00
2018-08-09T15:51:09.756Z,3.30
2018-08-09T15:53:38.113Z,4.97
2018-08-09T15:56:06.516Z,2.90
2018-08-09T15:58:34.955Z,4.60
2018-08-09T16:01:03.397Z,3.00
2018-08-09T16:03:31.748Z,2.57
2018-08-09T16:06:00.198Z,3.20
2018-08-09T16:08:28.565Z,3.83
2018-08-09T16:10:56.967Z,2.63
2018-08-09T16:13:25.329Z,2.50
2018-08-09T16:15:54.089Z,2.80
2018-08-09T16:18:22.495Z,2.70
2018-08-09T16:20:50.867Z,4.57
2018-08-09T16:23:19.305Z,3.10
2018-08-09T16:25:48.392Z,3.23
2018-08-09T16:28:16.793Z,4.10
2018-08-09T16:30:45.129Z,3.10
2018-08-09T16:33:13.512Z,3.20
2018-08-09T16:35:41.926Z,3.03
2018-08-09T16:38:10.324Z,2.50
2018-08-09T16:40:38.693Z,4.50
2018-08-09T16:43:07.057Z,2.33
2018-08-09T16:45:35.425Z,3.00
2018-08-09T16:48:03.874Z,3.43
2018-08-09T16:50:32.247Z,5.43
2018-08-09T16:53:00.579Z,2.70
2018-08-09T16:55:28.930Z,1.80
2018-08-09T16:57:57.381Z,1.97
2018-08-09T17:00:25.818Z,4.60
2018-08-09T17:02:54.799Z,2.40
2018-08-09T17:05:24.430Z,4.73
2018-08-09T17:07:52.877Z,2.47
2018-08-09T17:10:22.512Z,2.07
2018-08-09T17:12:51.096Z,2.13
2018-08-09T17:15:20.900Z,2.20
2018-08-09T17:17:49.328Z,5.20
2018-08-09T17:20:19.688Z,2.33
2018-08-09T17:22:48.090Z,2.27
2018-08-09T17:25:16.515Z,3.57
2018-08-09T17:27:45.804Z,2.53
2018-08-09T17:30:15.589Z,2.43
2018-08-09T17:32:44.020Z,2.90
2018-08-09T17:35:13.724Z,2.27
2018-08-09T17:37:42.209Z,4.80
2018-08-09T17:40:16.891Z,2.53
2018-08-09T17:42:45.676Z,2.33
2018-08-09T17:45:14.974Z,5.83
2018-08-09T17:47:43.770Z,2.53
2018-08-09T17:50:12.202Z,4.30
2018-08-09T17:52:40.597Z,3.07
2018-08-09T17:55:11.381Z,2.87
2018-08-09T17:57:40.541Z,3.30
2018-08-09T18:00:26.851Z,2.20
2018-08-09T18:02:55.544Z,2.90
2018-08-09T18:05:23.949Z,2.17
2018-08-09T18:07:53.264Z,5.30
2018-08-09T18:10:23.961Z,5.93
2018-08-09T18:12:52.330Z,2.07
2018-08-09T18:15:21.325Z,2.87
2018-08-09T18:17:49.889Z,2.07
2018-08-09T18:20:20.869Z,2.93
2018-08-09T18:22:49.283Z,3.00
2018-08-09T18:25:17.661Z,2.50
2018-08-09T18:27:46.089Z,2.40
2018-08-09T18:30:16.379Z,2.43
2018-08-09T18:32:44.823Z,3.00
2018-08-09T18:35:14.261Z,2.23
2018-08-09T18:37:42.654Z,2.77
2018-08-09T18:40:16.807Z,3.10
2018-08-09T18:42:45.301Z,2.80
2018-08-09T18:45:13.682Z,3.37
2018-08-09T18:47:42.052Z,6.63
2018-08-09T18:50:14.470Z,2.10
2018-08-09T18:52:42.991Z,2.47
2018-08-09T18:55:12.052Z,3.27
2018-08-09T18:57:40.522Z,2.60
2018-08-09T19:00:15.097Z,3.27
2018-08-09T19:02:43.975Z,2.10
2018-08-09T19:05:12.423Z,2.30
2018-08-09T19:07:40.825Z,3.03
2018-08-09T19:10:14.062Z,3.97
2018-08-09T19:12:42.817Z,2.00
2018-08-09T19:15:11.910Z,2.33
2018-08-09T19:17:40.450Z,3.00
2018-08-09T19:20:16.862Z,1.73
2018-08-09T19:22:45.372Z,2.17
2018-08-09T19:25:14.113Z,3.40
2018-08-09T19:27:42.772Z,2.60
2018-08-09T19:30:12.794Z,2.43
2018-08-09T19:32:42.089Z,2.40
2018-08-09T19:35:13.118Z,2.07
2018-08-09T19:37:41.617Z,2.70
2018-08-09T19:40:11.789Z,2.03
2018-08-09T19:42:40.776Z,2.93
2018-08-09T19:45:12.692Z,2.50
2018-08-09T19:47:42.008Z,2.30
2018-08-09T19:50:12.549Z,2.00
2018-08-09T19:52:41.050Z,2.10
2018-08-09T19:55:12.914Z,3.07
2018-08-09T19:57:42.774Z,2.27
2018-08-09T20:00:13.252Z,2.00
2018-08-09T20:02:41.726Z,2.50
2018-08-09T20:05:11.005Z,2.70
2018-08-09T20:07:39.803Z,3.50
2018-08-09T20:10:09.322Z,3.60
2018-08-09T20:12:37.908Z,2.30
2018-08-09T20:15:11.240Z,2.60
2018-08-09T20:17:39.620Z,1.80
2018-08-09T20:20:08.925Z,2.57
2018-08-09T20:22:37.305Z,2.53
2018-08-09T20:25:06.843Z,1.90
2018-08-09T20:27:35.287Z,1.80
2018-08-09T20:30:05.081Z,2.40
2018-08-09T20:32:33.445Z,1.70
2018-08-09T20:35:01.803Z,2.10
2018-08-09T20:37:30.176Z,1.97
2018-08-09T20:39:58.563Z,1.80
2018-08-09T20:42:27.016Z,1.90
2018-08-09T20:44:55.414Z,1.90
2018-08-09T20:47:24.368Z,1.97
2018-08-09T20:49:53.361Z,3.97
2018-08-09T20:52:21.808Z,2.33
2018-08-09T20:54:50.214Z,2.90
2018-08-09T20:57:18.667Z,1.70
2018-08-09T20:59:47.389Z,2.43
2018-08-09T21:02:16.039Z,2.80
2018-08-09T21:04:44.476Z,2.00
2018-08-09T21:07:13.089Z,1.63
2018-08-09T21:09:41.700Z,1.83
2018-08-09T21:12:10.101Z,1.60
2018-08-09T21:14:39.102Z,1.60
2018-08-09T21:17:07.546Z,2.50
2018-08-09T21:19:35.986Z,3.10
2018-08-09T21:22:04.376Z,3.80
2018-08-09T21:24:32.843Z,4.50
2018-08-09T21:27:01.280Z,1.70
2018-08-09T21:29:29.745Z,1.47
2018-08-09T21:31:58.361Z,1.40
2018-08-09T21:34:26.758Z,1.80
2018-08-09T21:36:55.145Z,1.50
2018-08-09T21:39:26.376Z,2.20
2018-08-09T21:41:55.284Z,1.70
2018-08-09T21:44:23.676Z,1.43
2018-08-09T21:46:52.078Z,1.90
2018-08-09T21:49:20.468Z,1.73
2018-08-09T21:51:49.001Z,1.80
2018-08-09T21:54:17.451Z,1.70
2018-08-09T21:56:46.014Z,1.70
2018-08-09T21:59:15.097Z,1.83
2018-08-09T22:01:43.785Z,2.23
2018-08-09T22:04:12.881Z,1.63
2018-08-09T22:06:46.602Z,1.97
2018-08-09T22:09:20.396Z,1.67
2018-08-09T22:11:53.954Z,1.97
2018-08-09T22:14:27.683Z,2.37
2018-08-09T22:19:06.850Z,1.60
2018-08-09T22:21:40.605Z,1.70
2018-08-09T22:24:08.994Z,1.40
2018-08-09T22:26:37.526Z,2.23
2018-08-09T22:29:05.927Z,1.40
2018-08-09T22:31:35.069Z,1.30
2018-08-09T22:34:03.612Z,3.83
2018-08-09T22:36:32.133Z,2.50
2018-08-09T22:39:00.646Z,1.20
2018-08-09T22:41:29.018Z,10.67
2018-08-09T22:43:57.438Z,1.40
2018-08-09T22:46:25.805Z,1.20
2018-08-09T22:48:54.195Z,1.63
2018-08-09T22:51:22.558Z,1.20
2018-08-09T22:53:50.976Z,2.03
2018-08-09T22:56:19.353Z,1.00
2018-08-09T22:58:47.723Z,1.20
2018-08-09T23:01:16.180Z,1.00
2018-08-09T23:03:44.608Z,1.17
2018-08-09T23:06:13.775Z,1.00
2018-08-09T23:08:42.158Z,0.97
2018-08-09T23:11:10.516Z,1.13
2018-08-09T23:13:38.918Z,0.97
2018-08-09T23:16:07.220Z,1.63
2018-08-09T23:18:35.597Z,1.40
2018-08-09T23:21:03.955Z,1.10
2018-08-09T23:23:32.420Z,1.50
2018-08-09T23:26:00.808Z,0.80
2018-08-09T23:28:29.155Z,0.93
2018-08-09T23:30:57.524Z,1.00
2018-08-09T23:33:26.027Z,0.80
2018-08-09T23:35:54.500Z,0.80
2018-08-09T23:38:22.889Z,0.80
2018-08-09T23:40:51.254Z,1.63
2018-08-09T23:43:19.617Z,1.00
2018-08-09T23:45:47.959Z,0.93
2018-08-09T23:48:16.290Z,1.10
2018-08-09T23:50:44.631Z,1.13
2018-08-09T23:53:12.963Z,1.00
2018-08-09T23:55:41.320Z,1.43
2018-08-09T23:58:09.652Z,1.00
